createdAt,value
2022-11-17T00:05:19.670Z,10.50
2022-11-17T00:12:38.682Z,10.50
2022-11-17T00:19:58.117Z,10.50
2022-11-17T00:27:01.595Z,10.50
2022-11-17T00:34:07.574Z,10.50
2022-11-17T00:41:08.061Z,10.60
2022-11-17T00:48:08.425Z,10.60
2022-11-17T00:55:09.173Z,10.60
2022-11-17T01:02:09.571Z,10.70
2022-11-17T01:09:17.630Z,10.70
2022-11-17T01:16:19.233Z,10.70
2022-11-17T01:23:19.228Z,10.70
2022-11-17T01:30:19.813Z,10.70
2022-11-17T01:37:20.372Z,10.60
2022-11-17T01:44:36.280Z,10.60
2022-11-17T01:51:40.408Z,10.50
2022-11-17T01:58:46.874Z,10.50
2022-11-17T02:06:15.490Z,10.50
2022-11-17T02:13:16.197Z,10.50
2022-11-17T02:20:41.870Z,10.40
2022-11-17T02:28:04.024Z,10.40
2022-11-17T02:35:30.726Z,10.40
2022-11-17T02:42:58.384Z,10.40
2022-11-17T02:50:07.156Z,10.40
2022-11-17T02:57:37.294Z,10.40
2022-11-17T03:04:37.428Z,10.40
2022-11-17T03:11:49.591Z,10.30
2022-11-17T03:19:16.791Z,10.30
2022-11-17T03:26:25.448Z,10.30
2022-11-17T03:33:26.307Z,10.40
2022-11-17T03:40:29.326Z,10.40
2022-11-17T03:47:31.888Z,10.40
2022-11-17T03:54:33.626Z,10.40
2022-11-17T04:01:35.264Z,10.40
2022-11-17T04:08:35.443Z,10.40
2022-11-17T04:15:54.658Z,10.40
2022-11-17T04:23:07.167Z,10.30
2022-11-17T04:30:08.194Z,10.20
2022-11-17T04:37:17.091Z,10.20
2022-11-17T04:44:17.912Z,10.20
2022-11-17T04:51:18.080Z,10.20
2022-11-17T04:58:18.485Z,10.20
2022-11-17T05:05:18.813Z,10.20
2022-11-17T05:12:37.486Z,10.30
2022-11-17T05:19:39.097Z,10.30
2022-11-17T05:26:39.852Z,10.50
2022-11-17T05:33:40.381Z,10.60
2022-11-17T05:40:40.859Z,10.70
2022-11-17T05:47:41.376Z,10.70
2022-11-17T05:54:41.675Z,10.70
2022-11-17T06:01:48.884Z,10.60
2022-11-17T06:08:50.259Z,10.60
2022-11-17T06:15:50.705Z,10.50
2022-11-17T06:22:51.254Z,10.50
2022-11-17T06:29:51.953Z,10.40
2022-11-17T06:36:53.458Z,10.50
2022-11-17T06:43:53.721Z,10.40
2022-11-17T06:50:55.279Z,10.40
2022-11-17T06:58:03.392Z,10.40
2022-11-17T07:05:04.217Z,10.30
2022-11-17T07:12:04.585Z,10.40
2022-11-17T07:19:05.010Z,10.40
2022-11-17T07:26:06.196Z,10.40
2022-11-17T07:33:06.420Z,10.40
2022-11-17T07:40:08.568Z,10.50
2022-11-17T07:47:09.024Z,10.50
2022-11-17T07:54:09.353Z,10.50
2022-11-17T08:01:15.105Z,10.60
2022-11-17T08:08:15.460Z,10.60
2022-11-17T08:15:16.935Z,10.80
2022-11-17T08:22:17.582Z,10.80
2022-11-17T08:29:17.744Z,10.90
2022-11-17T08:36:18.088Z,10.90
2022-11-17T08:43:18.629Z,11.00
2022-11-17T08:50:20.794Z,11.00
2022-11-17T08:57:24.212Z,11.00
2022-11-17T09:04:24.402Z,11.10
2022-11-17T09:11:24.843Z,11.20
2022-11-17T09:18:25.268Z,11.30
2022-11-17T09:25:25.700Z,11.40
2022-11-17T09:32:25.993Z,11.50
2022-11-17T09:39:26.206Z,11.60
2022-11-17T09:46:45.413Z,11.80
2022-11-17T09:53:55.139Z,12.00
2022-11-17T10:00:56.264Z,12.10
2022-11-17T10:08:07.193Z,12.20
2022-11-17T10:15:30.600Z,12.30
2022-11-17T10:22:35.420Z,12.40
2022-11-17T10:29:35.541Z,12.50
2022-11-17T10:36:35.999Z,12.50
2022-11-17T10:43:37.287Z,12.50
2022-11-17T10:50:40.664Z,12.50
2022-11-17T10:57:45.281Z,12.50
2022-11-17T11:04:45.432Z,12.50
2022-11-17T11:11:51.835Z,12.50
2022-11-17T11:18:53.487Z,12.50
2022-11-17T11:26:14.886Z,12.60
2022-11-17T11:33:15.264Z,12.70
2022-11-17T11:40:26.568Z,12.80
2022-11-17T11:47:47.977Z,12.70
2022-11-17T11:55:01.796Z,12.80
2022-11-17T12:02:11.404Z,12.80
2022-11-17T12:09:54.980Z,12.90
2022-11-17T12:17:04.721Z,12.90
2022-11-17T12:24:18.616Z,13.00
2022-11-17T12:31:24.630Z,13.20
2022-11-17T12:38:31.128Z,13.20
2022-11-17T12:45:54.375Z,13.20
2022-11-17T12:53:09.345Z,13.20
2022-11-17T13:00:10.827Z,13.20
2022-11-17T13:07:21.170Z,13.20
2022-11-17T13:14:21.742Z,13.20
2022-11-17T13:21:25.164Z,13.30
2022-11-17T13:28:30.859Z,13.20
2022-11-17T13:35:34.454Z,13.20
2022-11-17T13:42:35.074Z,13.30
2022-11-17T13:49:39.258Z,13.30
2022-11-17T13:56:42.249Z,13.30
2022-11-17T14:03:46.611Z,13.40
2022-11-17T14:10:47.049Z,13.40
2022-11-17T14:18:03.283Z,13.40
2022-11-17T14:25:05.430Z,13.40
2022-11-17T14:32:05.726Z,13.40
2022-11-17T14:39:18.009Z,13.30
2022-11-17T14:46:24.286Z,13.40
2022-11-17T14:53:25.593Z,13.30
2022-11-17T15:00:25.832Z,13.40
2022-11-17T15:07:26.960Z,13.40
2022-11-17T15:14:27.404Z,13.30
2022-11-17T15:21:27.775Z,13.30
2022-11-17T15:28:30.574Z,13.30
2022-11-17T15:35:31.215Z,13.20
2022-11-17T15:42:31.734Z,13.20
2022-11-17T15:49:32.143Z,13.10
2022-11-17T15:56:39.225Z,13.00
2022-11-17T16:03:42.391Z,13.00
2022-11-17T16:10:42.535Z,13.00
2022-11-17T16:17:42.943Z,12.90
2022-11-17T16:24:43.452Z,12.80
2022-11-17T16:31:44.042Z,12.70
2022-11-17T16:38:59.919Z,12.60
2022-11-17T16:46:18.478Z,12.50
2022-11-17T16:53:18.803Z,12.50
2022-11-17T17:00:19.325Z,12.40
2022-11-17T17:07:19.613Z,12.30
2022-11-17T17:14:19.953Z,12.20
2022-11-17T17:21:20.408Z,12.20
2022-11-17T17:28:20.744Z,12.10
2022-11-17T17:35:21.201Z,12.00
2022-11-17T17:42:21.694Z,11.90
2022-11-17T17:49:22.433Z,11.80
2022-11-17T17:56:23.525Z,11.70
2022-11-17T18:03:24.093Z,11.70
2022-11-17T18:10:25.016Z,11.60
2022-11-17T18:17:25.410Z,11.50
2022-11-17T18:24:25.698Z,11.40
2022-11-17T18:31:29.694Z,11.20
2022-11-17T18:38:30.794Z,11.10
2022-11-17T18:45:31.035Z,11.00
2022-11-17T18:52:31.627Z,10.90
2022-11-17T18:59:32.087Z,10.80
2022-11-17T19:06:32.470Z,10.70
2022-11-17T19:13:35.081Z,10.60
2022-11-17T19:20:35.634Z,10.60
2022-11-17T19:27:35.848Z,10.50
2022-11-17T19:34:36.187Z,10.50
2022-11-17T19:41:38.444Z,10.40
2022-11-17T19:48:39.169Z,10.30
2022-11-17T19:55:39.852Z,10.30
2022-11-17T20:02:40.553Z,10.20
2022-11-17T20:09:40.815Z,10.20
2022-11-17T20:16:41.086Z,10.20
2022-11-17T20:23:41.842Z,10.20
2022-11-17T20:30:42.121Z,10.20
2022-11-17T20:37:42.358Z,10.30
2022-11-17T20:44:43.045Z,10.30
2022-11-17T20:51:43.510Z,10.30
2022-11-17T20:58:44.536Z,10.20
2022-11-17T21:05:58.791Z,10.20
2022-11-17T21:12:59.935Z,10.10
2022-11-17T21:20:00.184Z,10.00
2022-11-17T21:27:00.911Z,9.90
2022-11-17T21:34:03.273Z,9.80
2022-11-17T21:41:08.482Z,9.70
2022-11-17T21:48:08.861Z,9.60
2022-11-17T21:55:09.645Z,9.50
2022-11-17T22:02:10.435Z,9.40
2022-11-17T22:09:11.490Z,9.30
2022-11-17T22:16:13.939Z,9.20
2022-11-17T22:23:14.373Z,9.20
2022-11-17T22:30:14.968Z,9.10
2022-11-17T22:37:15.386Z,9.00
2022-11-17T22:44:16.355Z,9.00
2022-11-17T22:51:37.564Z,9.10
2022-11-17T22:58:37.991Z,9.10
2022-11-17T23:05:38.444Z,9.10
2022-11-17T23:12:38.986Z,9.10
2022-11-17T23:19:39.064Z,9.20
2022-11-17T23:26:40.123Z,9.30
2022-11-17T23:33:42.962Z,9.30
2022-11-17T23:40:42.934Z,9.30
2022-11-17T23:47:43.249Z,9.40
2022-11-17T23:54:43.723Z,9.40
